sensor_id;sensor_type;location;lat;lon;timestamp;temperature;humidity
69204;DHT22;56317;27.658;85.326;2023-11-19T00:00:32;9.50;99.90
69204;DHT22;56317;27.658;85.326;2023-11-19T00:02:59;9.50;99.90
69204;DHT22;56317;27.658;85.326;2023-11-19T00:05:26;9.50;99.90
69204;DHT22;56317;27.658;85.326;2023-11-19T00:07:54;9.50;99.90
69204;DHT22;56317;27.658;85.326;2023-11-19T00:10:21;9.50;99.90
69204;DHT22;56317;27.658;85.326;2023-11-19T00:12:49;9.50;99.90
69204;DHT22;56317;27.658;85.326;2023-11-19T00:15:17;9.50;99.90
69204;DHT22;56317;27.658;85.326;2023-11-19T00:17:48;9.50;99.90
69204;DHT22;56317;27.658;85.326;2023-11-19T00:20:19;9.40;99.90
69204;DHT22;56317;27.658;85.326;2023-11-19T00:22:48;9.40;99.90
69204;DHT22;56317;27.658;85.326;2023-11-19T00:25:19;9.30;99.90
69204;DHT22;56317;27.658;85.326;2023-11-19T00:27:46;9.30;99.90
69204;DHT22;56317;27.658;85.326;2023-11-19T00:30:13;9.30;99.90
69204;DHT22;56317;27.658;85.326;2023-11-19T00:32:41;9.30;99.90
69204;DHT22;56317;27.658;85.326;2023-11-19T00:35:08;9.30;99.90
69204;DHT22;56317;27.658;85.326;2023-11-19T00:37:40;9.30;99.90
69204;DHT22;56317;27.658;85.326;2023-11-19T00:40:09;9.20;99.90
69204;DHT22;56317;27.658;85.326;2023-11-19T00:42:37;9.30;99.90
69204;DHT22;56317;27.658;85.326;2023-11-19T00:45:04;9.30;99.90
69204;DHT22;56317;27.658;85.326;2023-11-19T00:47:35;9.30;99.90
69204;DHT22;56317;27.658;85.326;2023-11-19T00:50:03;9.40;99.90
69204;DHT22;56317;27.658;85.326;2023-11-19T00:52:30;9.50;99.90
69204;DHT22;56317;27.658;85.326;2023-11-19T00:54:57;9.40;99.90
69204;DHT22;56317;27.658;85.326;2023-11-19T00:57:24;9.50;99.90
69204;DHT22;56317;27.658;85.326;2023-11-19T00:59:55;9.50;99.90
69204;DHT22;56317;27.658;85.326;2023-11-19T01:02:22;9.60;99.90
69204;DHT22;56317;27.658;85.326;2023-11-19T01:04:49;9.60;99.90
69204;DHT22;56317;27.658;85.326;2023-11-19T01:07:18;9.70;99.90
69204;DHT22;56317;27.658;85.326;2023-11-19T01:09:46;9.80;99.90
69204;DHT22;56317;27.658;85.326;2023-11-19T01:12:13;9.90;99.90
69204;DHT22;56317;27.658;85.326;2023-11-19T01:14:41;10.00;99.90
69204;DHT22;56317;27.658;85.326;2023-11-19T01:17:08;10.10;99.90
69204;DHT22;56317;27.658;85.326;2023-11-19T01:19:35;10.20;99.90
69204;DHT22;56317;27.658;85.326;2023-11-19T01:22:02;10.20;99.90
69204;DHT22;56317;27.658;85.326;2023-11-19T01:24:29;10.30;99.90
69204;DHT22;56317;27.658;85.326;2023-11-19T01:27:00;10.40;99.90
69204;DHT22;56317;27.658;85.326;2023-11-19T01:29:27;10.50;99.90
69204;DHT22;56317;27.658;85.326;2023-11-19T01:31:54;10.60;99.90
69204;DHT22;56317;27.658;85.326;2023-11-19T01:34:21;10.70;99.90
69204;DHT22;56317;27.658;85.326;2023-11-19T01:36:48;10.80;99.90
69204;DHT22;56317;27.658;85.326;2023-11-19T01:39:16;10.90;99.90
69204;DHT22;56317;27.658;85.326;2023-11-19T01:41:43;10.90;99.90
69204;DHT22;56317;27.658;85.326;2023-11-19T01:44:12;10.90;99.90
69204;DHT22;56317;27.658;85.326;2023-11-19T01:46:42;11.00;99.90
69204;DHT22;56317;27.658;85.326;2023-11-19T01:49:10;11.00;99.90
69204;DHT22;56317;27.658;85.326;2023-11-19T01:51:40;11.10;99.90
69204;DHT22;56317;27.658;85.326;2023-11-19T01:54:12;11.10;99.90
69204;DHT22;56317;27.658;85.326;2023-11-19T01:56:41;11.20;99.90
69204;DHT22;56317;27.658;85.326;2023-11-19T01:59:09;11.30;99.90
69204;DHT22;56317;27.658;85.326;2023-11-19T02:01:39;11.30;99.90
69204;DHT22;56317;27.658;85.326;2023-11-19T02:04:12;11.40;99.90
69204;DHT22;56317;27.658;85.326;2023-11-19T02:06:41;11.50;99.90
69204;DHT22;56317;27.658;85.326;2023-11-19T02:09:15;11.60;99.90
69204;DHT22;56317;27.658;85.326;2023-11-19T02:11:49;12.00;99.90
69204;DHT22;56317;27.658;85.326;2023-11-19T02:14:18;12.40;99.90
69204;DHT22;56317;27.658;85.326;2023-11-19T02:16:47;12.70;99.90
69204;DHT22;56317;27.658;85.326;2023-11-19T02:19:14;13.10;99.90
69204;DHT22;56317;27.658;85.326;2023-11-19T02:21:41;13.50;99.90
69204;DHT22;56317;27.658;85.326;2023-11-19T02:24:11;13.70;99.90
69204;DHT22;56317;27.658;85.326;2023-11-19T02:26:52;14.00;99.90
69204;DHT22;56317;27.658;85.326;2023-11-19T02:29:22;14.20;99.90
69204;DHT22;56317;27.658;85.326;2023-11-19T02:31:49;14.40;99.90
69204;DHT22;56317;27.658;85.326;2023-11-19T02:34:16;14.40;99.90
69204;DHT22;56317;27.658;85.326;2023-11-19T02:36:44;14.60;99.90
69204;DHT22;56317;27.658;85.326;2023-11-19T02:39:16;14.80;99.90
69204;DHT22;56317;27.658;85.326;2023-11-19T02:41:48;14.90;99.90
69204;DHT22;56317;27.658;85.326;2023-11-19T02:44:20;15.10;99.90
69204;DHT22;56317;27.658;85.326;2023-11-19T02:46:47;15.30;99.90
69204;DHT22;56317;27.658;85.326;2023-11-19T02:49:21;15.50;99.90
69204;DHT22;56317;27.658;85.326;2023-11-19T02:51:48;15.70;99.90
69204;DHT22;56317;27.658;85.326;2023-11-19T02:54:19;15.80;99.90
69204;DHT22;56317;27.658;85.326;2023-11-19T02:56:49;15.90;99.90
69204;DHT22;56317;27.658;85.326;2023-11-19T02:59:22;16.10;99.90
69204;DHT22;56317;27.658;85.326;2023-11-19T03:01:54;16.30;99.90
69204;DHT22;56317;27.658;85.326;2023-11-19T03:04:21;16.60;99.90
69204;DHT22;56317;27.658;85.326;2023-11-19T03:06:52;16.80;99.90
69204;DHT22;56317;27.658;85.326;2023-11-19T03:09:19;17.00;99.90
69204;DHT22;56317;27.658;85.326;2023-11-19T03:11:46;17.20;99.90
69204;DHT22;56317;27.658;85.326;2023-11-19T03:14:14;17.40;99.90
69204;DHT22;56317;27.658;85.326;2023-11-19T03:16:41;17.70;99.90
69204;DHT22;56317;27.658;85.326;2023-11-19T03:19:15;17.80;99.90
69204;DHT22;56317;27.658;85.326;2023-11-19T03:21:43;18.20;99.90
69204;DHT22;56317;27.658;85.326;2023-11-19T03:24:13;18.50;99.90
69204;DHT22;56317;27.658;85.326;2023-11-19T03:26:41;18.80;99.90
69204;DHT22;56317;27.658;85.326;2023-11-19T03:29:11;19.60;99.90
69204;DHT22;56317;27.658;85.326;2023-11-19T03:31:42;20.70;99.90
69204;DHT22;56317;27.658;85.326;2023-11-19T03:34:09;21.70;99.90
69204;DHT22;56317;27.658;85.326;2023-11-19T03:36:36;22.50;99.90
69204;DHT22;56317;27.658;85.326;2023-11-19T03:39:05;23.00;99.90
69204;DHT22;56317;27.658;85.326;2023-11-19T03:41:33;23.30;99.90
69204;DHT22;56317;27.658;85.326;2023-11-19T03:44:04;23.70;99.90
69204;DHT22;56317;27.658;85.326;2023-11-19T03:46:31;24.40;99.90
69204;DHT22;56317;27.658;85.326;2023-11-19T03:49:00;25.10;99.90
69204;DHT22;56317;27.658;85.326;2023-11-19T03:51:28;25.60;99.10
69204;DHT22;56317;27.658;85.326;2023-11-19T03:53:56;26.10;98.10
69204;DHT22;56317;27.658;85.326;2023-11-19T03:56:23;26.60;96.10
69204;DHT22;56317;27.658;85.326;2023-11-19T03:58:50;27.10;95.80
69204;DHT22;56317;27.658;85.326;2023-11-19T04:01:18;27.50;93.90
69204;DHT22;56317;27.658;85.326;2023-11-19T04:03:47;27.90;93.20
69204;DHT22;56317;27.658;85.326;2023-11-19T04:06:17;28.30;92.80
69204;DHT22;56317;27.658;85.326;2023-11-19T04:08:45;28.50;91.40
69204;DHT22;56317;27.658;85.326;2023-11-19T04:11:12;28.80;90.60
69204;DHT22;56317;27.658;85.326;2023-11-19T04:13:39;29.20;88.80
69204;DHT22;56317;27.658;85.326;2023-11-19T04:16:06;29.50;87.90
69204;DHT22;56317;27.658;85.326;2023-11-19T04:18:34;29.90;86.10
69204;DHT22;56317;27.658;85.326;2023-11-19T04:21:01;30.30;84.40
69204;DHT22;56317;27.658;85.326;2023-11-19T04:23:29;30.70;83.80
69204;DHT22;56317;27.658;85.326;2023-11-19T04:25:56;30.80;80.70
69204;DHT22;56317;27.658;85.326;2023-11-19T04:28:23;30.80;80.60
69204;DHT22;56317;27.658;85.326;2023-11-19T04:30:53;31.10;79.40
69204;DHT22;56317;27.658;85.326;2023-11-19T04:33:20;31.40;77.40
69204;DHT22;56317;27.658;85.326;2023-11-19T04:35:47;31.50;76.70
69204;DHT22;56317;27.658;85.326;2023-11-19T04:38:15;31.80;76.50
69204;DHT22;56317;27.658;85.326;2023-11-19T04:40:46;32.20;74.90
69204;DHT22;56317;27.658;85.326;2023-11-19T04:43:13;32.40;74.00
69204;DHT22;56317;27.658;85.326;2023-11-19T04:45:43;32.80;72.80
69204;DHT22;56317;27.658;85.326;2023-11-19T04:48:10;33.20;70.80
69204;DHT22;56317;27.658;85.326;2023-11-19T04:50:38;33.30;68.80
69204;DHT22;56317;27.658;85.326;2023-11-19T04:53:06;33.60;68.50
69204;DHT22;56317;27.658;85.326;2023-11-19T04:55:34;33.80;68.20
69204;DHT22;56317;27.658;85.326;2023-11-19T04:58:04;33.90;66.60
69204;DHT22;56317;27.658;85.326;2023-11-19T05:00:32;34.10;67.30
69204;DHT22;56317;27.658;85.326;2023-11-19T05:03:01;34.40;66.30
69204;DHT22;56317;27.658;85.326;2023-11-19T05:05:31;35.00;64.60
69204;DHT22;56317;27.658;85.326;2023-11-19T05:07:58;35.00;64.30
69204;DHT22;56317;27.658;85.326;2023-11-19T05:10:26;35.20;63.10
69204;DHT22;56317;27.658;85.326;2023-11-19T05:12:56;35.50;62.90
69204;DHT22;56317;27.658;85.326;2023-11-19T05:15:23;35.60;62.80
69204;DHT22;56317;27.658;85.326;2023-11-19T05:17:51;36.00;61.50
69204;DHT22;56317;27.658;85.326;2023-11-19T05:20:18;36.20;60.70
69204;DHT22;56317;27.658;85.326;2023-11-19T05:22:45;36.20;60.50
69204;DHT22;56317;27.658;85.326;2023-11-19T05:25:12;36.50;59.70
69204;DHT22;56317;27.658;85.326;2023-11-19T05:27:39;36.60;60.00
69204;DHT22;56317;27.658;85.326;2023-11-19T05:30:07;37.00;59.90
69204;DHT22;56317;27.658;85.326;2023-11-19T05:32:35;37.20;57.80
69204;DHT22;56317;27.658;85.326;2023-11-19T05:35:03;37.60;57.00
69204;DHT22;56317;27.658;85.326;2023-11-19T05:37:30;38.00;55.90
69204;DHT22;56317;27.658;85.326;2023-11-19T05:40:01;38.00;56.50
69204;DHT22;56317;27.658;85.326;2023-11-19T05:42:30;38.10;55.30
69204;DHT22;56317;27.658;85.326;2023-11-19T05:44:57;38.40;55.40
69204;DHT22;56317;27.658;85.326;2023-11-19T05:47:24;38.40;55.10
69204;DHT22;56317;27.658;85.326;2023-11-19T05:49:52;38.60;54.80
69204;DHT22;56317;27.658;85.326;2023-11-19T05:52:27;38.70;54.80
69204;DHT22;56317;27.658;85.326;2023-11-19T05:55:02;38.90;54.20
69204;DHT22;56317;27.658;85.326;2023-11-19T05:57:37;38.70;53.40
69204;DHT22;56317;27.658;85.326;2023-11-19T06:00:04;38.80;54.00
69204;DHT22;56317;27.658;85.326;2023-11-19T06:02:36;38.80;52.80
69204;DHT22;56317;27.658;85.326;2023-11-19T06:05:07;38.60;53.00
69204;DHT22;56317;27.658;85.326;2023-11-19T06:07:34;38.80;52.70
69204;DHT22;56317;27.658;85.326;2023-11-19T06:10:03;39.20;53.00
69204;DHT22;56317;27.658;85.326;2023-11-19T06:12:37;39.90;52.10
69204;DHT22;56317;27.658;85.326;2023-11-19T06:15:05;40.00;52.40
69204;DHT22;56317;27.658;85.326;2023-11-19T06:17:36;40.20;50.80
69204;DHT22;56317;27.658;85.326;2023-11-19T06:20:04;40.40;50.20
69204;DHT22;56317;27.658;85.326;2023-11-19T06:22:33;40.50;49.90
69204;DHT22;56317;27.658;85.326;2023-11-19T06:25:00;40.50;50.20
69204;DHT22;56317;27.658;85.326;2023-11-19T06:27:27;40.30;49.50
69204;DHT22;56317;27.658;85.326;2023-11-19T06:29:55;40.40;49.00
69204;DHT22;56317;27.658;85.326;2023-11-19T06:32:23;40.50;49.70
69204;DHT22;56317;27.658;85.326;2023-11-19T06:34:51;40.40;49.50
69204;DHT22;56317;27.658;85.326;2023-11-19T06:37:18;40.40;49.30
69204;DHT22;56317;27.658;85.326;2023-11-19T06:39:45;40.40;50.10
69204;DHT22;56317;27.658;85.326;2023-11-19T06:42:12;40.80;49.80
69204;DHT22;56317;27.658;85.326;2023-11-19T06:44:40;41.00;48.10
69204;DHT22;56317;27.658;85.326;2023-11-19T06:47:09;40.50;48.80
69204;DHT22;56317;27.658;85.326;2023-11-19T06:49:36;40.60;48.80
69204;DHT22;56317;27.658;85.326;2023-11-19T06:52:03;40.70;49.60
69204;DHT22;56317;27.658;85.326;2023-11-19T06:54:31;40.80;49.70
69204;DHT22;56317;27.658;85.326;2023-11-19T06:56:58;40.70;48.70
69204;DHT22;56317;27.658;85.326;2023-11-19T06:59:26;40.70;49.00
69204;DHT22;56317;27.658;85.326;2023-11-19T07:01:56;41.30;49.30
69204;DHT22;56317;27.658;85.326;2023-11-19T07:04:31;41.80;48.00
69204;DHT22;56317;27.658;85.326;2023-11-19T07:06:59;42.10;47.70
69204;DHT22;56317;27.658;85.326;2023-11-19T07:09:27;42.40;47.10
69204;DHT22;56317;27.658;85.326;2023-11-19T07:11:54;42.90;48.30
69204;DHT22;56317;27.658;85.326;2023-11-19T07:14:21;43.30;47.10
69204;DHT22;56317;27.658;85.326;2023-11-19T07:16:49;43.40;46.10
69204;DHT22;56317;27.658;85.326;2023-11-19T07:19:16;42.90;46.90
69204;DHT22;56317;27.658;85.326;2023-11-19T07:21:45;41.40;46.50
69204;DHT22;56317;27.658;85.326;2023-11-19T07:24:12;41.30;47.60
69204;DHT22;56317;27.658;85.326;2023-11-19T07:26:47;42.30;48.10
69204;DHT22;56317;27.658;85.326;2023-11-19T07:29:15;42.70;47.70
69204;DHT22;56317;27.658;85.326;2023-11-19T07:32:02;43.20;47.90
69204;DHT22;56317;27.658;85.326;2023-11-19T07:34:29;43.60;46.70
69204;DHT22;56317;27.658;85.326;2023-11-19T07:36:59;41.80;46.40
69204;DHT22;56317;27.658;85.326;2023-11-19T07:39:29;41.80;48.10
69204;DHT22;56317;27.658;85.326;2023-11-19T07:41:57;41.90;46.20
69204;DHT22;56317;27.658;85.326;2023-11-19T07:44:24;42.00;47.00
69204;DHT22;56317;27.658;85.326;2023-11-19T07:46:51;42.70;46.20
69204;DHT22;56317;27.658;85.326;2023-11-19T07:49:18;42.90;45.70
69204;DHT22;56317;27.658;85.326;2023-11-19T07:51:47;43.20;45.30
69204;DHT22;56317;27.658;85.326;2023-11-19T07:54:14;43.20;45.70
69204;DHT22;56317;27.658;85.326;2023-11-19T07:56:41;43.50;45.90
69204;DHT22;56317;27.658;85.326;2023-11-19T07:59:12;43.40;45.40
69204;DHT22;56317;27.658;85.326;2023-11-19T08:01:39;43.50;46.00
69204;DHT22;56317;27.658;85.326;2023-11-19T08:04:06;43.90;45.60
69204;DHT22;56317;27.658;85.326;2023-11-19T08:06:34;44.40;44.70
69204;DHT22;56317;27.658;85.326;2023-11-19T08:09:01;44.70;45.30
69204;DHT22;56317;27.658;85.326;2023-11-19T08:11:28;44.90;44.40
69204;DHT22;56317;27.658;85.326;2023-11-19T08:13:55;44.60;44.60
69204;DHT22;56317;27.658;85.326;2023-11-19T08:16:23;44.50;45.10
69204;DHT22;56317;27.658;85.326;2023-11-19T08:18:50;44.20;44.10
69204;DHT22;56317;27.658;85.326;2023-11-19T08:21:17;44.50;44.20
69204;DHT22;56317;27.658;85.326;2023-11-19T08:23:46;44.40;44.20
69204;DHT22;56317;27.658;85.326;2023-11-19T08:26:15;44.90;43.60
69204;DHT22;56317;27.658;85.326;2023-11-19T08:28:42;44.80;43.40
69204;DHT22;56317;27.658;85.326;2023-11-19T08:31:09;44.60;43.70
69204;DHT22;56317;27.658;85.326;2023-11-19T08:33:36;44.70;44.20
69204;DHT22;56317;27.658;85.326;2023-11-19T08:36:04;45.00;44.10
69204;DHT22;56317;27.658;85.326;2023-11-19T08:38:31;45.20;43.40
69204;DHT22;56317;27.658;85.326;2023-11-19T08:40:58;45.10;43.30
69204;DHT22;56317;27.658;85.326;2023-11-19T08:43:29;44.90;43.40
69204;DHT22;56317;27.658;85.326;2023-11-19T08:45:59;44.50;43.30
69204;DHT22;56317;27.658;85.326;2023-11-19T08:48:27;44.40;43.80
69204;DHT22;56317;27.658;85.326;2023-11-19T08:50:54;43.90;44.40
69204;DHT22;56317;27.658;85.326;2023-11-19T08:53:21;43.10;44.40
69204;DHT22;56317;27.658;85.326;2023-11-19T08:56:09;42.50;44.40
69204;DHT22;56317;27.658;85.326;2023-11-19T08:58:37;42.60;44.30
69204;DHT22;56317;27.658;85.326;2023-11-19T09:01:04;42.70;44.10
69204;DHT22;56317;27.658;85.326;2023-11-19T09:03:32;42.80;44.70
69204;DHT22;56317;27.658;85.326;2023-11-19T09:06:01;43.10;44.80
69204;DHT22;56317;27.658;85.326;2023-11-19T09:08:28;43.20;44.60
69204;DHT22;56317;27.658;85.326;2023-11-19T09:10:55;43.00;43.70
69204;DHT22;56317;27.658;85.326;2023-11-19T09:13:22;43.00;44.50
69204;DHT22;56317;27.658;85.326;2023-11-19T09:15:49;42.80;44.50
69204;DHT22;56317;27.658;85.326;2023-11-19T09:18:16;42.80;44.40
69204;DHT22;56317;27.658;85.326;2023-11-19T09:20:44;42.60;44.50
69204;DHT22;56317;27.658;85.326;2023-11-19T09:23:12;42.30;44.60
69204;DHT22;56317;27.658;85.326;2023-11-19T09:25:39;42.10;45.10
69204;DHT22;56317;27.658;85.326;2023-11-19T09:28:09;41.80;45.80
69204;DHT22;56317;27.658;85.326;2023-11-19T09:30:36;41.80;44.90
69204;DHT22;56317;27.658;85.326;2023-11-19T09:33:04;41.20;45.00
69204;DHT22;56317;27.658;85.326;2023-11-19T09:35:32;40.20;46.10
69204;DHT22;56317;27.658;85.326;2023-11-19T09:38:00;39.90;46.20
69204;DHT22;56317;27.658;85.326;2023-11-19T09:40:27;39.60;46.60
69204;DHT22;56317;27.658;85.326;2023-11-19T09:42:56;39.80;47.00
69204;DHT22;56317;27.658;85.326;2023-11-19T09:45:27;39.50;46.90
69204;DHT22;56317;27.658;85.326;2023-11-19T09:47:55;39.50;47.00
69204;DHT22;56317;27.658;85.326;2023-11-19T09:50:24;39.50;47.60
69204;DHT22;56317;27.658;85.326;2023-11-19T09:52:51;39.60;47.60
69204;DHT22;56317;27.658;85.326;2023-11-19T09:55:18;39.60;47.30
69204;DHT22;56317;27.658;85.326;2023-11-19T09:57:46;38.80;47.80
69204;DHT22;56317;27.658;85.326;2023-11-19T10:00:15;38.40;48.80
69204;DHT22;56317;27.658;85.326;2023-11-19T10:02:46;38.20;48.10
69204;DHT22;56317;27.658;85.326;2023-11-19T10:05:14;38.20;48.90
69204;DHT22;56317;27.658;85.326;2023-11-19T10:07:42;37.60;48.70
69204;DHT22;56317;27.658;85.326;2023-11-19T10:10:16;36.00;49.90
69204;DHT22;56317;27.658;85.326;2023-11-19T10:12:51;34.50;52.00
69204;DHT22;56317;27.658;85.326;2023-11-19T10:15:21;32.80;53.50
69204;DHT22;56317;27.658;85.326;2023-11-19T10:17:51;31.20;55.80
69204;DHT22;56317;27.658;85.326;2023-11-19T10:20:18;29.70;57.00
69204;DHT22;56317;27.658;85.326;2023-11-19T10:22:45;28.50;59.60
69204;DHT22;56317;27.658;85.326;2023-11-19T10:25:25;27.60;61.30
69204;DHT22;56317;27.658;85.326;2023-11-19T10:27:53;27.00;62.30
69204;DHT22;56317;27.658;85.326;2023-11-19T10:30:28;27.10;62.10
69204;DHT22;56317;27.658;85.326;2023-11-19T10:33:09;27.00;62.50
69204;DHT22;56317;27.658;85.326;2023-11-19T10:35:51;26.40;62.20
69204;DHT22;56317;27.658;85.326;2023-11-19T10:38:26;25.90;64.10
69204;DHT22;56317;27.658;85.326;2023-11-19T10:40:54;25.50;64.70
69204;DHT22;56317;27.658;85.326;2023-11-19T10:43:21;25.20;65.00
69204;DHT22;56317;27.658;85.326;2023-11-19T10:45:52;25.10;66.20
69204;DHT22;56317;27.658;85.326;2023-11-19T10:48:19;24.60;67.40
69204;DHT22;56317;27.658;85.326;2023-11-19T10:50:53;24.00;68.50
69204;DHT22;56317;27.658;85.326;2023-11-19T10:53:23;23.20;71.00
69204;DHT22;56317;27.658;85.326;2023-11-19T10:55:54;22.60;72.00
69204;DHT22;56317;27.658;85.326;2023-11-19T10:58:25;22.00;73.50
69204;DHT22;56317;27.658;85.326;2023-11-19T11:00:57;21.50;76.30
69204;DHT22;56317;27.658;85.326;2023-11-19T11:03:41;21.10;77.80
69204;DHT22;56317;27.658;85.326;2023-11-19T11:06:09;20.70;79.30
69204;DHT22;56317;27.658;85.326;2023-11-19T11:08:40;20.40;79.30
69204;DHT22;56317;27.658;85.326;2023-11-19T11:11:08;20.10;80.10
69204;DHT22;56317;27.658;85.326;2023-11-19T11:13:41;19.80;81.40
69204;DHT22;56317;27.658;85.326;2023-11-19T11:16:09;19.50;81.40
69204;DHT22;56317;27.658;85.326;2023-11-19T11:18:37;19.30;83.00
69204;DHT22;56317;27.658;85.326;2023-11-19T11:21:14;19.10;84.00
69204;DHT22;56317;27.658;85.326;2023-11-19T11:29:45;18.50;88.00
69204;DHT22;56317;27.658;85.326;2023-11-19T11:38:11;17.90;90.20
69204;DHT22;56317;27.658;85.326;2023-11-19T11:40:39;17.80;90.30
69204;DHT22;56317;27.658;85.326;2023-11-19T11:43:45;17.70;91.30
69204;DHT22;56317;27.658;85.326;2023-11-19T11:49:07;17.50;91.20
69204;DHT22;56317;27.658;85.326;2023-11-19T11:57:08;17.10;93.20
69204;DHT22;56317;27.658;85.326;2023-11-19T11:59:45;17.00;94.50
69204;DHT22;56317;27.658;85.326;2023-11-19T12:02:15;17.00;95.90
69204;DHT22;56317;27.658;85.326;2023-11-19T12:04:46;16.90;95.40
69204;DHT22;56317;27.658;85.326;2023-11-19T12:07:24;16.90;95.20
69204;DHT22;56317;27.658;85.326;2023-11-19T12:09:56;16.70;97.10
69204;DHT22;56317;27.658;85.326;2023-11-19T12:12:34;16.60;96.30
69204;DHT22;56317;27.658;85.326;2023-11-19T12:15:09;16.60;97.50
69204;DHT22;56317;27.658;85.326;2023-11-19T12:17:46;16.50;97.60
69204;DHT22;56317;27.658;85.326;2023-11-19T12:20:19;16.40;99.30
69204;DHT22;56317;27.658;85.326;2023-11-19T12:22:47;16.40;99.70
69204;DHT22;56317;27.658;85.326;2023-11-19T12:25:20;16.40;99.90
69204;DHT22;56317;27.658;85.326;2023-11-19T12:27:52;16.30;99.90
69204;DHT22;56317;27.658;85.326;2023-11-19T12:30:26;16.30;99.90
69204;DHT22;56317;27.658;85.326;2023-11-19T12:32:55;16.20;99.90
69204;DHT22;56317;27.658;85.326;2023-11-19T12:35:23;16.10;99.90
69204;DHT22;56317;27.658;85.326;2023-11-19T12:37:51;16.10;99.90
69204;DHT22;56317;27.658;85.326;2023-11-19T12:40:22;16.00;99.90
69204;DHT22;56317;27.658;85.326;2023-11-19T12:42:55;16.00;99.90
69204;DHT22;56317;27.658;85.326;2023-11-19T12:45:24;15.90;99.90
69204;DHT22;56317;27.658;85.326;2023-11-19T12:48:07;15.90;99.90
69204;DHT22;56317;27.658;85.326;2023-11-19T12:50:55;15.80;99.90
69204;DHT22;56317;27.658;85.326;2023-11-19T12:53:25;15.80;99.90
69204;DHT22;56317;27.658;85.326;2023-11-19T12:55:53;15.70;99.90
69204;DHT22;56317;27.658;85.326;2023-11-19T12:58:35;15.60;99.90
69204;DHT22;56317;27.658;85.326;2023-11-19T13:01:08;15.60;99.90
69204;DHT22;56317;27.658;85.326;2023-11-19T13:03:37;15.50;99.90
69204;DHT22;56317;27.658;85.326;2023-11-19T13:06:24;15.40;99.90
69204;DHT22;56317;27.658;85.326;2023-11-19T13:08:51;15.30;99.90
69204;DHT22;56317;27.658;85.326;2023-11-19T13:11:34;15.40;99.90
69204;DHT22;56317;27.658;85.326;2023-11-19T13:14:03;15.20;99.90
69204;DHT22;56317;27.658;85.326;2023-11-19T13:16:31;15.10;99.90
69204;DHT22;56317;27.658;85.326;2023-11-19T13:18:59;15.10;99.90
69204;DHT22;56317;27.658;85.326;2023-11-19T13:21:29;15.10;99.90
69204;DHT22;56317;27.658;85.326;2023-11-19T13:23:56;15.00;99.90
69204;DHT22;56317;27.658;85.326;2023-11-19T13:26:24;15.00;99.90
69204;DHT22;56317;27.658;85.326;2023-11-19T13:28:51;15.10;99.90
69204;DHT22;56317;27.658;85.326;2023-11-19T13:31:18;15.10;99.90
69204;DHT22;56317;27.658;85.326;2023-11-19T13:33:45;15.10;99.90
69204;DHT22;56317;27.658;85.326;2023-11-19T13:36:12;15.10;99.90
69204;DHT22;56317;27.658;85.326;2023-11-19T13:38:39;14.90;99.90
69204;DHT22;56317;27.658;85.326;2023-11-19T13:41:11;14.80;99.90
69204;DHT22;56317;27.658;85.326;2023-11-19T13:43:40;14.80;99.90
69204;DHT22;56317;27.658;85.326;2023-11-19T13:46:07;14.70;99.90
69204;DHT22;56317;27.658;85.326;2023-11-19T13:48:36;14.70;99.90
69204;DHT22;56317;27.658;85.326;2023-11-19T13:51:03;14.70;99.90
69204;DHT22;56317;27.658;85.326;2023-11-19T13:53:30;14.70;99.90
69204;DHT22;56317;27.658;85.326;2023-11-19T13:55:57;14.70;99.90
69204;DHT22;56317;27.658;85.326;2023-11-19T13:58:24;14.80;99.90
69204;DHT22;56317;27.658;85.326;2023-11-19T14:00:55;14.70;99.90
69204;DHT22;56317;27.658;85.326;2023-11-19T14:03:22;14.70;99.90
69204;DHT22;56317;27.658;85.326;2023-11-19T14:05:49;14.70;99.90
69204;DHT22;56317;27.658;85.326;2023-11-19T14:08:18;14.70;99.90
69204;DHT22;56317;27.658;85.326;2023-11-19T14:10:47;14.60;99.90
69204;DHT22;56317;27.658;85.326;2023-11-19T14:13:14;14.60;99.90
69204;DHT22;56317;27.658;85.326;2023-11-19T14:15:41;14.50;99.90
69204;DHT22;56317;27.658;85.326;2023-11-19T14:18:08;14.50;99.90
69204;DHT22;56317;27.658;85.326;2023-11-19T14:20:35;14.40;99.90
69204;DHT22;56317;27.658;85.326;2023-11-19T14:23:05;14.40;99.90
69204;DHT22;56317;27.658;85.326;2023-11-19T14:25:32;14.30;99.90
69204;DHT22;56317;27.658;85.326;2023-11-19T14:28:00;14.30;99.90
69204;DHT22;56317;27.658;85.326;2023-11-19T14:30:30;14.30;99.90
69204;DHT22;56317;27.658;85.326;2023-11-19T14:32:57;14.20;99.90
69204;DHT22;56317;27.658;85.326;2023-11-19T14:35:24;14.20;99.90
69204;DHT22;56317;27.658;85.326;2023-11-19T14:37:51;14.20;99.90
69204;DHT22;56317;27.658;85.326;2023-11-19T14:40:19;14.20;99.90
69204;DHT22;56317;27.658;85.326;2023-11-19T14:42:47;14.20;99.90
69204;DHT22;56317;27.658;85.326;2023-11-19T14:45:15;14.20;99.90
69204;DHT22;56317;27.658;85.326;2023-11-19T14:47:44;14.10;99.90
69204;DHT22;56317;27.658;85.326;2023-11-19T14:50:14;14.10;99.90
69204;DHT22;56317;27.658;85.326;2023-11-19T14:52:41;14.10;99.90
69204;DHT22;56317;27.658;85.326;2023-11-19T14:55:09;13.90;99.90
69204;DHT22;56317;27.658;85.326;2023-11-19T14:57:40;13.80;99.90
69204;DHT22;56317;27.658;85.326;2023-11-19T15:00:08;13.80;99.90
69204;DHT22;56317;27.658;85.326;2023-11-19T15:02:42;13.70;99.90
69204;DHT22;56317;27.658;85.326;2023-11-19T15:05:10;13.70;99.90
69204;DHT22;56317;27.658;85.326;2023-11-19T15:07:43;13.70;99.90
69204;DHT22;56317;27.658;85.326;2023-11-19T15:10:10;13.60;99.90
69204;DHT22;56317;27.658;85.326;2023-11-19T15:12:39;13.60;99.90
69204;DHT22;56317;27.658;85.326;2023-11-19T15:15:08;13.50;99.90
69204;DHT22;56317;27.658;85.326;2023-11-19T15:17:36;13.40;99.90
69204;DHT22;56317;27.658;85.326;2023-11-19T15:20:04;13.40;99.90
69204;DHT22;56317;27.658;85.326;2023-11-19T15:22:31;13.30;99.90
69204;DHT22;56317;27.658;85.326;2023-11-19T15:24:58;13.20;99.90
69204;DHT22;56317;27.658;85.326;2023-11-19T15:27:31;13.20;99.90
69204;DHT22;56317;27.658;85.326;2023-11-19T15:29:58;13.10;99.90
69204;DHT22;56317;27.658;85.326;2023-11-19T15:32:28;13.00;99.90
69204;DHT22;56317;27.658;85.326;2023-11-19T15:34:58;13.00;99.90
69204;DHT22;56317;27.658;85.326;2023-11-19T15:37:25;12.90;99.90
69204;DHT22;56317;27.658;85.326;2023-11-19T15:39:52;12.80;99.90
69204;DHT22;56317;27.658;85.326;2023-11-19T15:42:20;12.70;99.90
69204;DHT22;56317;27.658;85.326;2023-11-19T15:44:48;12.70;99.90
69204;DHT22;56317;27.658;85.326;2023-11-19T15:47:16;12.60;99.90
69204;DHT22;56317;27.658;85.326;2023-11-19T15:49:43;12.50;99.90